createdAt,value
2023-05-23T00:01:08.317Z,3.60
2023-05-23T00:03:36.626Z,3.50
2023-05-23T00:06:07.241Z,3.30
2023-05-23T00:08:35.110Z,3.90
2023-05-23T00:11:02.846Z,3.60
2023-05-23T00:13:33.527Z,3.00
2023-05-23T00:16:02.687Z,3.60
2023-05-23T00:18:30.705Z,3.70
2023-05-23T00:20:59.344Z,3.90
2023-05-23T00:23:29.822Z,3.30
2023-05-23T00:25:58.469Z,3.70
2023-05-23T00:28:26.559Z,3.60
2023-05-23T00:30:54.304Z,3.90
2023-05-23T00:33:22.465Z,3.40
2023-05-23T00:35:50.528Z,3.60
2023-05-23T00:38:19.515Z,3.30
2023-05-23T00:40:48.213Z,3.70
2023-05-23T00:43:16.313Z,3.40
2023-05-23T00:45:44.094Z,3.70
2023-05-23T00:48:12.764Z,3.70
2023-05-23T00:50:41.320Z,4.00
2023-05-23T00:53:09.080Z,3.60
2023-05-23T00:55:37.035Z,3.50
2023-05-23T00:58:06.782Z,3.50
2023-05-23T01:04:17.703Z,3.20
2023-05-23T01:06:47.148Z,4.00
2023-05-23T01:09:25.059Z,3.40
2023-05-23T01:12:11.305Z,4.10
2023-05-23T01:15:10.928Z,3.80
2023-05-23T01:18:09.568Z,3.80
2023-05-23T01:20:45.142Z,3.70
2023-05-23T01:24:18.226Z,3.40
2023-05-23T01:27:39.392Z,3.50
2023-05-23T01:30:26.620Z,3.80
2023-05-23T01:32:56.694Z,3.90
2023-05-23T01:35:29.304Z,3.80
2023-05-23T01:37:57.239Z,3.90
2023-05-23T01:40:25.964Z,3.80
2023-05-23T01:42:57.244Z,4.00
2023-05-23T01:45:28.072Z,4.20
2023-05-23T01:47:57.441Z,3.60
2023-05-23T01:50:27.012Z,4.30
2023-05-23T01:52:56.246Z,4.40
2023-05-23T01:57:56.814Z,3.90
2023-05-23T02:00:25.068Z,4.10
2023-05-23T02:02:52.987Z,4.40
2023-05-23T02:05:20.921Z,4.90
2023-05-23T02:07:48.612Z,4.50
2023-05-23T02:10:19.605Z,4.60
2023-05-23T02:12:47.410Z,4.30
2023-05-23T02:15:15.316Z,5.00
2023-05-23T02:17:43.279Z,4.50
2023-05-23T02:20:11.574Z,4.90
2023-05-23T02:22:39.807Z,4.70
2023-05-23T02:25:08.108Z,4.30
2023-05-23T02:27:36.028Z,5.20
2023-05-23T02:30:04.108Z,4.50
2023-05-23T02:32:32.285Z,4.60
2023-05-23T02:35:00.052Z,4.50
2023-05-23T02:37:27.742Z,4.80
2023-05-23T02:39:56.946Z,4.80
2023-05-23T02:42:24.680Z,4.50
2023-05-23T02:44:52.510Z,4.70
2023-05-23T02:47:20.349Z,4.30
2023-05-23T02:49:49.525Z,5.20
2023-05-23T02:52:17.841Z,4.70
2023-05-23T02:54:45.784Z,5.20
2023-05-23T02:57:13.657Z,5.20
2023-05-23T02:59:42.063Z,4.50
2023-05-23T03:02:09.867Z,5.00
2023-05-23T03:04:38.351Z,4.70
2023-05-23T03:07:11.516Z,4.60
2023-05-23T03:09:44.838Z,4.70
2023-05-23T03:12:12.621Z,4.20
2023-05-23T03:14:40.518Z,4.80
2023-05-23T03:17:08.334Z,4.90
2023-05-23T03:19:36.786Z,4.80
2023-05-23T03:22:04.811Z,4.80
2023-05-23T03:24:33.000Z,4.90
2023-05-23T03:27:02.072Z,5.20
2023-05-23T03:29:29.929Z,4.60
2023-05-23T03:31:58.769Z,4.60
2023-05-23T03:34:27.095Z,5.30
2023-05-23T03:36:54.824Z,4.60
2023-05-23T03:39:23.302Z,4.50
2023-05-23T03:41:51.514Z,5.40
2023-05-23T03:44:19.558Z,4.90
2023-05-23T03:46:47.432Z,5.20
2023-05-23T03:49:15.871Z,4.90
2023-05-23T03:51:43.581Z,5.40
2023-05-23T03:54:14.881Z,5.20
2023-05-23T03:56:42.683Z,5.10
2023-05-23T03:59:11.249Z,5.00
2023-05-23T04:01:39.662Z,5.20
2023-05-23T04:04:07.514Z,5.20
2023-05-23T04:06:38.354Z,4.80
2023-05-23T04:09:06.730Z,5.40
2023-05-23T04:11:38.867Z,4.90
2023-05-23T04:14:07.973Z,5.20
2023-05-23T04:16:36.345Z,5.60
2023-05-23T04:19:07.113Z,5.00
2023-05-23T04:21:36.136Z,4.90
2023-05-23T04:24:09.291Z,4.30
2023-05-23T04:26:37.423Z,4.70
2023-05-23T04:29:06.550Z,4.30
2023-05-23T04:31:35.297Z,4.60
2023-05-23T04:34:04.027Z,4.00
2023-05-23T04:36:38.280Z,4.60
2023-05-23T04:39:06.654Z,4.60
2023-05-23T04:41:40.026Z,4.40
2023-05-23T04:44:20.334Z,4.80
2023-05-23T04:47:03.526Z,4.00
2023-05-23T04:50:10.588Z,3.70
2023-05-23T04:52:38.902Z,4.60
2023-05-23T04:55:08.542Z,4.00
2023-05-23T04:57:37.580Z,4.80
2023-05-23T05:00:10.392Z,4.10
2023-05-23T05:02:39.320Z,4.10
2023-05-23T05:05:08.049Z,4.40
2023-05-23T05:07:35.875Z,5.30
2023-05-23T05:10:05.013Z,4.10
2023-05-23T05:12:35.597Z,3.70
2023-05-23T05:15:04.637Z,4.20
2023-05-23T05:17:36.917Z,4.50
2023-05-23T05:20:08.950Z,4.00
2023-05-23T05:22:40.269Z,5.00
2023-05-23T05:25:09.380Z,4.40
2023-05-23T05:27:40.533Z,4.30
2023-05-23T05:30:11.993Z,4.10
2023-05-23T05:32:58.090Z,4.50
2023-05-23T05:35:25.997Z,4.00
2023-05-23T05:37:53.890Z,4.70
2023-05-23T05:40:22.295Z,4.50
2023-05-23T05:42:50.249Z,3.90
2023-05-23T05:45:18.000Z,4.30
2023-05-23T05:47:47.116Z,4.20
2023-05-23T05:50:15.264Z,4.80
2023-05-23T05:52:43.851Z,4.40
2023-05-23T05:55:12.645Z,3.90
2023-05-23T05:57:44.049Z,4.10
2023-05-23T06:00:19.209Z,5.00
2023-05-23T06:02:57.680Z,4.70
2023-05-23T06:05:48.514Z,4.60
2023-05-23T06:08:16.345Z,4.00
2023-05-23T06:11:03.355Z,3.70
2023-05-23T06:13:33.701Z,4.40
2023-05-23T06:16:01.620Z,3.30
2023-05-23T06:18:29.834Z,3.30
2023-05-23T06:20:57.588Z,3.40
2023-05-23T06:23:25.315Z,3.70
2023-05-23T06:25:53.123Z,3.70
2023-05-23T06:28:20.871Z,4.20
2023-05-23T06:30:48.679Z,3.50
2023-05-23T06:33:17.145Z,3.20
2023-05-23T06:35:44.906Z,3.40
2023-05-23T06:38:12.930Z,3.30
2023-05-23T06:40:41.684Z,2.40
2023-05-23T06:43:09.898Z,2.90
2023-05-23T06:46:07.186Z,2.90
2023-05-23T06:48:35.022Z,2.60
2023-05-23T06:51:02.994Z,2.90
2023-05-23T06:53:30.948Z,2.20
2023-05-23T06:55:58.788Z,2.80
2023-05-23T06:58:26.942Z,2.90
2023-05-23T07:00:56.413Z,2.60
2023-05-23T07:03:29.535Z,3.00
2023-05-23T07:06:01.063Z,2.20
2023-05-23T07:08:29.234Z,2.80
2023-05-23T07:11:01.324Z,2.60
2023-05-23T07:13:34.648Z,2.40
2023-05-23T07:16:02.677Z,2.60
2023-05-23T07:18:31.366Z,2.20
2023-05-23T07:20:59.152Z,2.90
2023-05-23T07:23:27.182Z,2.10
2023-05-23T07:26:02.487Z,1.80
2023-05-23T07:28:57.209Z,1.90
2023-05-23T07:31:24.979Z,2.40
2023-05-23T07:33:57.005Z,2.40
2023-05-23T07:36:34.719Z,2.20
2023-05-23T07:39:04.082Z,2.10
2023-05-23T07:48:55.421Z,2.00
2023-05-23T07:51:24.074Z,1.80
2023-05-23T07:53:52.193Z,2.20
2023-05-23T07:56:21.086Z,1.80
2023-05-23T07:58:49.062Z,1.80
2023-05-23T08:01:18.378Z,2.10
2023-05-23T08:03:58.640Z,2.00
2023-05-23T08:06:32.027Z,1.60
2023-05-23T08:09:02.004Z,1.80
2023-05-23T08:11:30.924Z,2.00
2023-05-23T08:14:01.331Z,1.80
2023-05-23T08:16:38.460Z,1.80
2023-05-23T08:19:13.769Z,1.90
2023-05-23T08:21:43.592Z,1.70
2023-05-23T08:24:14.914Z,2.60
2023-05-23T08:26:43.876Z,1.50
2023-05-23T08:29:13.627Z,1.80
2023-05-23T08:31:41.960Z,2.30
2023-05-23T08:34:09.869Z,1.80
2023-05-23T08:36:40.081Z,1.80
2023-05-23T08:39:11.242Z,2.10
2023-05-23T08:41:46.483Z,1.40
2023-05-23T08:44:14.511Z,1.70
2023-05-23T08:46:49.974Z,2.20
2023-05-23T08:49:42.556Z,1.90
2023-05-23T08:52:13.420Z,1.60
2023-05-23T08:54:42.942Z,1.60
2023-05-23T08:57:11.812Z,1.80
2023-05-23T08:59:43.145Z,1.50
2023-05-23T09:02:12.432Z,1.70
2023-05-23T09:04:40.252Z,2.10
2023-05-23T09:07:18.989Z,1.80
2023-05-23T09:09:50.990Z,1.90
2023-05-23T09:12:22.442Z,1.70
2023-05-23T09:14:51.240Z,1.70
2023-05-23T09:17:21.556Z,1.80
2023-05-23T09:19:51.816Z,1.90
2023-05-23T09:22:27.172Z,2.00
2023-05-23T09:25:05.453Z,2.00
2023-05-23T09:27:33.751Z,2.00
2023-05-23T09:30:10.618Z,1.60
2023-05-23T09:32:38.825Z,1.70
2023-05-23T09:35:12.204Z,1.50
2023-05-23T09:37:45.874Z,2.20
2023-05-23T09:40:17.039Z,2.20
2023-05-23T09:42:53.895Z,2.10
2023-05-23T09:45:21.628Z,2.00
2023-05-23T09:47:53.129Z,1.70
2023-05-23T09:50:21.706Z,1.50
2023-05-23T09:52:51.195Z,2.00
2023-05-23T09:55:20.021Z,1.80
2023-05-23T10:00:18.938Z,2.00
2023-05-23T10:02:58.908Z,1.50
2023-05-23T10:05:47.853Z,2.00
2023-05-23T10:08:30.169Z,2.10
2023-05-23T10:10:57.904Z,2.00
2023-05-23T10:13:29.391Z,1.70
2023-05-23T10:16:12.526Z,1.80
2023-05-23T10:18:44.021Z,1.90
2023-05-23T10:21:15.627Z,1.80
2023-05-23T10:23:44.643Z,2.00
2023-05-23T10:26:12.929Z,2.10
2023-05-23T10:28:41.833Z,1.80
2023-05-23T10:31:11.644Z,1.80
2023-05-23T10:33:46.745Z,2.10
2023-05-23T10:36:34.931Z,1.80
2023-05-23T10:39:10.191Z,2.10
2023-05-23T10:41:51.508Z,1.50
2023-05-23T10:44:32.230Z,2.10
2023-05-23T10:47:02.374Z,2.00
2023-05-23T10:49:45.591Z,1.70
2023-05-23T10:52:16.582Z,1.90
2023-05-23T10:54:52.908Z,1.70
2023-05-23T10:57:22.660Z,2.20
2023-05-23T10:59:51.985Z,1.70
2023-05-23T11:02:26.544Z,2.50
2023-05-23T11:05:23.528Z,2.00
2023-05-23T11:08:14.297Z,1.80
2023-05-23T11:11:01.984Z,1.90
2023-05-23T11:14:00.755Z,1.90
2023-05-23T11:16:41.746Z,2.30
2023-05-23T11:19:23.141Z,1.90
2023-05-23T11:21:56.066Z,2.00
2023-05-23T11:24:24.015Z,2.00
2023-05-23T11:27:00.298Z,1.90
2023-05-23T11:29:29.028Z,1.80
2023-05-23T11:31:57.613Z,1.80
2023-05-23T11:34:28.077Z,1.50
2023-05-23T11:36:56.293Z,2.00
2023-05-23T11:39:25.186Z,1.70
2023-05-23T11:44:31.281Z,2.00
2023-05-23T11:47:04.068Z,1.70
2023-05-23T11:49:34.960Z,1.70
2023-05-23T11:52:03.183Z,2.10
2023-05-23T11:54:31.314Z,2.10
2023-05-23T11:56:59.508Z,2.00
2023-05-23T11:59:28.419Z,1.80
2023-05-23T12:01:56.210Z,2.00
2023-05-23T12:04:26.998Z,2.00
2023-05-23T12:06:55.122Z,3.30
2023-05-23T12:09:22.894Z,2.00
2023-05-23T12:11:51.237Z,2.10
2023-05-23T12:14:19.211Z,2.30
2023-05-23T12:16:47.388Z,2.20
2023-05-23T12:19:18.227Z,2.10
2023-05-23T12:21:49.595Z,2.10
2023-05-23T12:24:17.619Z,1.90
2023-05-23T12:26:53.134Z,2.40
2023-05-23T12:29:35.561Z,2.60
2023-05-23T12:32:05.454Z,2.20
2023-05-23T12:34:33.379Z,2.10
2023-05-23T12:37:18.910Z,1.90
2023-05-23T12:39:48.116Z,2.30
2023-05-23T12:42:15.909Z,2.00
2023-05-23T12:44:43.770Z,2.50
2023-05-23T12:47:11.689Z,2.10
2023-05-23T12:49:39.824Z,2.50
2023-05-23T12:52:07.662Z,2.70
2023-05-23T12:54:35.385Z,2.30
2023-05-23T12:57:03.483Z,2.40
2023-05-23T12:59:31.233Z,2.10
2023-05-23T13:02:00.634Z,2.20
2023-05-23T13:04:30.957Z,2.50
2023-05-23T13:06:59.643Z,2.20
2023-05-23T13:09:27.384Z,2.00
2023-05-23T13:11:55.242Z,2.40
2023-05-23T13:14:22.991Z,2.50
2023-05-23T13:16:52.856Z,2.30
2023-05-23T13:19:20.713Z,2.30
2023-05-23T13:21:49.910Z,2.60
2023-05-23T13:24:17.894Z,2.30
2023-05-23T13:26:45.699Z,2.20
2023-05-23T13:29:13.422Z,2.50
2023-05-23T13:31:41.507Z,3.40
2023-05-23T13:34:09.441Z,2.60
2023-05-23T13:36:37.158Z,2.50
2023-05-23T13:39:05.103Z,2.20
2023-05-23T13:41:32.787Z,2.10
2023-05-23T13:44:00.676Z,2.90
2023-05-23T13:46:28.432Z,2.60
2023-05-23T13:48:56.195Z,2.30
2023-05-23T13:51:24.067Z,2.50
2023-05-23T13:53:52.200Z,2.60
2023-05-23T13:56:19.972Z,2.00
2023-05-23T13:58:47.771Z,2.10
2023-05-23T14:01:15.582Z,2.40
2023-05-23T14:03:43.477Z,2.30
2023-05-23T14:06:11.260Z,2.50
2023-05-23T14:08:39.020Z,2.40
2023-05-23T14:11:06.953Z,2.30
2023-05-23T14:13:34.668Z,2.50
2023-05-23T14:16:02.493Z,2.50
2023-05-23T14:18:30.839Z,2.50
2023-05-23T14:20:58.646Z,2.50
2023-05-23T14:23:26.399Z,2.50
2023-05-23T14:25:54.108Z,2.40
2023-05-23T14:28:22.069Z,2.10
2023-05-23T14:30:49.992Z,2.70
2023-05-23T14:33:18.679Z,2.40
2023-05-23T14:35:46.553Z,2.60
2023-05-23T14:38:14.410Z,2.30
2023-05-23T14:40:44.161Z,2.70
2023-05-23T14:43:12.223Z,2.80
2023-05-23T14:45:40.314Z,2.50
2023-05-23T14:48:10.790Z,2.50
2023-05-23T14:50:40.915Z,2.80
2023-05-23T14:53:08.963Z,2.60
2023-05-23T14:55:36.916Z,2.90
2023-05-23T14:58:05.742Z,2.90
2023-05-23T15:00:33.543Z,2.40
2023-05-23T15:03:01.811Z,2.60
2023-05-23T15:05:29.640Z,3.00
2023-05-23T15:07:57.366Z,2.20
2023-05-23T15:10:25.146Z,2.80
2023-05-23T15:12:52.961Z,2.50
2023-05-23T15:15:23.819Z,2.30
2023-05-23T15:17:51.850Z,2.60
2023-05-23T15:20:19.597Z,2.60
2023-05-23T15:22:47.397Z,2.40
2023-05-23T15:25:15.200Z,2.80
2023-05-23T15:27:44.842Z,2.80
2023-05-23T15:30:12.926Z,2.50
2023-05-23T15:32:40.743Z,2.90
2023-05-23T15:35:09.088Z,2.60
2023-05-23T15:37:36.815Z,2.90
2023-05-23T15:40:05.122Z,3.10
2023-05-23T15:42:32.799Z,3.10
2023-05-23T15:45:00.484Z,2.80
2023-05-23T15:47:28.209Z,2.90
2023-05-23T15:49:56.008Z,2.70
2023-05-23T15:52:23.730Z,2.70
2023-05-23T15:54:51.511Z,2.60
2023-05-23T15:57:19.252Z,2.90
2023-05-23T15:59:47.217Z,2.30
2023-05-23T16:02:16.311Z,2.70
2023-05-23T16:04:44.179Z,2.90
2023-05-23T16:07:12.238Z,2.80
2023-05-23T16:09:40.320Z,2.80
2023-05-23T16:12:08.417Z,2.50
2023-05-23T16:14:36.152Z,2.80
2023-05-23T16:17:05.972Z,3.10
2023-05-23T16:19:34.654Z,2.90
2023-05-23T16:22:02.671Z,3.00
2023-05-23T16:24:30.722Z,2.70
2023-05-23T16:27:00.538Z,3.00
2023-05-23T16:29:28.490Z,3.30
2023-05-23T16:31:56.301Z,4.20
2023-05-23T16:34:24.460Z,3.30
2023-05-23T16:36:52.619Z,4.30
2023-05-23T16:39:20.376Z,3.30
2023-05-23T16:41:48.449Z,3.70
2023-05-23T16:44:16.403Z,3.40
2023-05-23T16:46:44.906Z,3.20
2023-05-23T16:49:12.780Z,3.30
2023-05-23T16:51:40.512Z,3.60
2023-05-23T16:54:09.099Z,3.00
2023-05-23T16:56:39.074Z,3.10
2023-05-23T16:59:07.091Z,2.80
2023-05-23T17:01:35.596Z,3.40
2023-05-23T17:04:04.271Z,6.10
2023-05-23T17:06:33.538Z,2.70
2023-05-23T17:09:01.366Z,3.30
2023-05-23T17:11:29.346Z,3.80
2023-05-23T17:13:57.269Z,3.10
2023-05-23T17:16:25.388Z,3.30
2023-05-23T17:18:53.788Z,2.70
2023-05-23T17:21:22.188Z,3.70
2023-05-23T17:23:50.527Z,2.80
2023-05-23T17:26:19.801Z,2.70
2023-05-23T17:28:50.547Z,3.30
2023-05-23T17:31:18.868Z,3.00
2023-05-23T17:33:47.611Z,3.00
2023-05-23T17:36:15.766Z,3.30
2023-05-23T17:38:43.950Z,3.20
2023-05-23T17:41:12.077Z,2.90
2023-05-23T17:46:10.001Z,2.90
2023-05-23T17:48:47.118Z,2.90
2023-05-23T17:51:16.898Z,3.70
2023-05-23T17:53:44.997Z,3.00
2023-05-23T17:56:13.069Z,4.00
2023-05-23T17:58:43.223Z,3.80
2023-05-23T18:01:13.650Z,4.10
2023-05-23T18:03:43.715Z,3.90
2023-05-23T18:06:12.065Z,3.70
2023-05-23T18:08:41.065Z,4.10
2023-05-23T18:11:11.305Z,3.70
2023-05-23T18:13:41.038Z,3.40
2023-05-23T18:16:09.381Z,3.60
2023-05-23T18:18:37.426Z,4.50
2023-05-23T18:21:06.512Z,3.80
2023-05-23T18:23:34.572Z,3.80
2023-05-23T18:26:03.230Z,4.70
2023-05-23T18:28:31.275Z,4.80
2023-05-23T18:31:01.415Z,4.30
2023-05-23T18:33:29.577Z,4.50
2023-05-23T18:35:57.813Z,5.00
2023-05-23T18:38:26.777Z,5.10
2023-05-23T18:40:55.522Z,5.10
2023-05-23T18:43:23.407Z,4.50
2023-05-23T18:45:51.480Z,4.20
2023-05-23T18:48:19.553Z,4.10
2023-05-23T18:50:47.963Z,4.80
2023-05-23T18:53:15.970Z,4.20
2023-05-23T18:55:44.044Z,4.30
2023-05-23T18:58:12.132Z,3.60
2023-05-23T19:00:40.482Z,3.60
2023-05-23T19:03:08.570Z,3.80
2023-05-23T19:05:36.916Z,3.80
2023-05-23T19:08:05.274Z,3.90
2023-05-23T19:10:33.755Z,4.60
2023-05-23T19:13:03.200Z,3.60
2023-05-23T19:15:31.368Z,4.80
2023-05-23T19:18:00.390Z,4.90
2023-05-23T19:20:28.483Z,4.60
2023-05-23T19:22:57.298Z,4.70
2023-05-23T19:25:26.109Z,4.60
2023-05-23T19:27:54.158Z,5.80
2023-05-23T19:32:51.944Z,5.50
2023-05-23T19:35:20.233Z,7.10
2023-05-23T19:37:50.703Z,6.30
2023-05-23T19:40:21.387Z,7.00
2023-05-23T19:42:49.591Z,6.80
2023-05-23T19:45:19.282Z,6.80
2023-05-23T19:47:47.464Z,6.60
2023-05-23T19:50:15.541Z,8.10
2023-05-23T19:52:44.387Z,5.50
2023-05-23T19:55:14.540Z,6.40
2023-05-23T19:57:42.579Z,6.70
2023-05-23T20:00:11.152Z,5.90
2023-05-23T20:02:41.355Z,5.20
2023-05-23T20:05:09.784Z,6.30
2023-05-23T20:07:37.949Z,5.90
2023-05-23T20:10:07.540Z,4.80
2023-05-23T20:12:35.800Z,5.30
2023-05-23T20:15:04.879Z,4.70
2023-05-23T20:17:33.489Z,5.60
2023-05-23T20:20:02.459Z,5.40
2023-05-23T20:22:30.689Z,4.20
2023-05-23T20:24:59.232Z,5.30
2023-05-23T20:27:27.331Z,5.50
2023-05-23T20:29:55.956Z,5.80
2023-05-23T20:32:24.118Z,4.90
2023-05-23T20:34:52.064Z,5.60
2023-05-23T20:37:19.942Z,5.20
2023-05-23T20:39:48.612Z,5.80
2023-05-23T20:42:19.116Z,5.20
2023-05-23T20:47:15.685Z,5.20
2023-05-23T20:49:44.259Z,5.40
2023-05-23T20:52:11.989Z,5.20
2023-05-23T20:54:42.694Z,5.80
2023-05-23T20:57:11.029Z,5.90
2023-05-23T20:59:38.827Z,5.40
2023-05-23T21:02:08.014Z,4.80
2023-05-23T21:04:36.181Z,5.40
2023-05-23T21:07:04.236Z,5.00
2023-05-23T21:09:31.944Z,6.00
2023-05-23T21:12:09.271Z,5.60
2023-05-23T21:14:36.969Z,5.80
2023-05-23T21:17:04.885Z,5.50
2023-05-23T21:19:32.844Z,6.40
2023-05-23T21:22:00.890Z,5.80
2023-05-23T21:24:29.658Z,5.80
2023-05-23T21:26:57.428Z,5.40
2023-05-23T21:29:25.121Z,5.70
2023-05-23T21:31:52.966Z,6.00
2023-05-23T21:34:24.263Z,5.40
2023-05-23T21:36:53.766Z,5.20
2023-05-23T21:39:21.615Z,5.90
2023-05-23T21:41:49.352Z,5.20
2023-05-23T21:44:18.635Z,5.50
2023-05-23T21:46:46.583Z,5.50
2023-05-23T21:49:14.552Z,6.30
2023-05-23T21:51:43.526Z,5.40
2023-05-23T21:54:11.298Z,5.90
2023-05-23T21:56:38.957Z,5.30
2023-05-23T21:59:06.801Z,5.70
2023-05-23T22:01:34.642Z,6.80
2023-05-23T22:04:02.536Z,5.30
2023-05-23T22:06:30.432Z,4.90
2023-05-23T22:08:58.151Z,5.70
2023-05-23T22:11:27.423Z,5.10
2023-05-23T22:18:52.124Z,4.70
2023-05-23T22:21:19.981Z,6.00
2023-05-23T22:23:47.887Z,6.80
2023-05-23T22:26:15.659Z,5.40
2023-05-23T22:28:43.654Z,6.10
2023-05-23T22:31:13.043Z,5.50
2023-05-23T22:33:42.225Z,5.90
2023-05-23T22:36:10.413Z,5.40
2023-05-23T22:38:38.086Z,5.00
2023-05-23T22:41:05.938Z,5.60
2023-05-23T22:43:35.370Z,5.40
2023-05-23T22:46:03.605Z,5.40
2023-05-23T22:48:33.913Z,5.90
2023-05-23T22:51:02.841Z,5.40
2023-05-23T22:53:31.157Z,6.00
2023-05-23T22:55:59.210Z,5.40
2023-05-23T22:58:27.044Z,5.90
2023-05-23T23:00:55.347Z,5.80
2023-05-23T23:03:23.161Z,5.50
2023-05-23T23:05:50.926Z,5.70
2023-05-23T23:08:19.445Z,5.90
2023-05-23T23:10:47.215Z,6.20
2023-05-23T23:13:15.009Z,6.20
2023-05-23T23:15:44.094Z,6.60
2023-05-23T23:18:13.856Z,6.00
2023-05-23T23:20:42.012Z,6.00
2023-05-23T23:23:10.088Z,5.80
2023-05-23T23:25:37.847Z,5.20
2023-05-23T23:28:06.191Z,6.00
2023-05-23T23:30:33.928Z,5.60
2023-05-23T23:33:01.713Z,5.70
2023-05-23T23:35:29.466Z,5.40
2023-05-23T23:37:57.200Z,5.10
2023-05-23T23:40:24.917Z,5.80
2023-05-23T23:42:52.571Z,5.90
2023-05-23T23:45:20.873Z,5.90
2023-05-23T23:47:48.617Z,6.20
2023-05-23T23:50:16.463Z,6.30
2023-05-23T23:52:44.251Z,6.20
2023-05-23T23:55:12.013Z,6.50
2023-05-23T23:57:39.764Z,5.40
